Time;durP1;ratioP1;P1;durP2;ratioP2;P2;SDS_P1;SDS_P2;PMS_P1;PMS_P2;Temp;Humidity;BMP_temperature;BMP_pressure;BME280_temperature;BME280_humidity;BME280_pressure;Samples;Min_cycle;Max_cycle;Signal;HPM_P1;HPM_P2
2023/09/22 00:01:43;;;;;;;4.20;2.20;;;16.50;99.90;;;;;;5065523;28;20230;-82
2023/09/22 00:04:11;;;;;;;3.17;1.87;;;16.50;99.90;;;;;;5081167;28;20227;-83
2023/09/22 00:06:38;;;;;;;2.77;1.47;;;16.50;99.90;;;;;;5066440;28;20785;-84
2023/09/22 00:09:07;;;;;;;2.17;1.80;;;16.50;99.90;;;;;;5058482;28;20222;-83
2023/09/22 00:11:36;;;;;;;2.10;1.80;;;16.50;99.90;;;;;;5081879;28;20621;-83
2023/09/22 00:14:03;;;;;;;3.40;1.80;;;16.40;99.90;;;;;;5076094;28;20223;-82
2023/09/22 00:16:30;;;;;;;6.27;1.80;;;16.40;99.90;;;;;;5064759;28;20233;-82
2023/09/22 00:18:59;;;;;;;2.90;1.90;;;16.30;99.90;;;;;;5060608;28;20233;-82
2023/09/22 00:21:27;;;;;;;2.17;1.80;;;16.30;99.90;;;;;;5081727;28;20302;-82
2023/09/22 00:23:54;;;;;;;2.90;2.17;;;16.20;99.90;;;;;;5061848;28;20222;-83
2023/09/22 00:26:21;;;;;;;1.93;1.73;;;16.20;99.90;;;;;;5079322;28;20835;-83
2023/09/22 00:28:48;;;;;;;3.13;2.10;;;16.10;99.90;;;;;;5060327;28;20223;-82
2023/09/22 00:31:14;;;;;;;2.60;2.23;;;16.10;99.90;;;;;;5080947;28;20881;-82
2023/09/22 00:33:41;;;;;;;4.00;2.10;;;16.10;99.90;;;;;;5080789;28;20306;-82
2023/09/22 00:36:08;;;;;;;3.00;2.20;;;16.00;99.90;;;;;;5079687;28;20318;-82
2023/09/22 00:38:36;;;;;;;3.10;2.73;;;16.00;99.90;;;;;;5063801;28;20822;-81
2023/09/22 00:41:03;;;;;;;3.63;2.40;;;16.00;99.90;;;;;;5060728;28;20728;-82
2023/09/22 00:43:29;;;;;;;4.07;2.70;;;16.00;99.90;;;;;;5068043;28;20700;-81
2023/09/22 00:45:57;;;;;;;5.33;2.80;;;16.00;99.90;;;;;;5080115;28;20317;-81
2023/09/22 00:48:28;;;;;;;3.87;2.97;;;16.00;99.90;;;;;;5083619;28;20314;-81
2023/09/22 00:50:55;;;;;;;3.93;2.90;;;16.00;99.90;;;;;;5063492;28;20317;-81
2023/09/22 00:53:24;;;;;;;4.17;2.93;;;16.00;99.90;;;;;;5077078;28;20751;-81
2023/09/22 00:55:53;;;;;;;3.90;3.20;;;16.00;99.90;;;;;;5060534;28;20794;-82
2023/09/22 00:58:20;;;;;;;5.47;3.40;;;16.00;99.90;;;;;;5060602;28;21298;-82
2023/09/22 01:00:48;;;;;;;6.47;4.30;;;16.00;99.90;;;;;;5083270;28;20243;-82
2023/09/22 01:03:16;;;;;;;5.50;4.90;;;16.00;99.90;;;;;;5074033;28;20246;-81
2023/09/22 01:05:43;;;;;;;6.05;4.90;;;16.00;99.90;;;;;;5063326;28;20253;-81
2023/09/22 01:08:10;;;;;;;5.50;5.00;;;16.00;99.90;;;;;;5063789;28;20215;-80
2023/09/22 01:10:37;;;;;;;5.90;5.40;;;16.00;99.90;;;;;;5079442;28;20214;-81
2023/09/22 01:13:06;;;;;;;6.23;5.10;;;16.00;99.90;;;;;;5061705;28;20223;-81
2023/09/22 01:15:34;;;;;;;6.10;5.27;;;16.00;99.90;;;;;;5065642;28;20233;-81
2023/09/22 01:18:01;;;;;;;6.23;5.50;;;15.90;99.90;;;;;;5080828;28;20252;-80
2023/09/22 01:20:28;;;;;;;6.67;5.77;;;15.90;99.90;;;;;;5059124;28;20229;-82
2023/09/22 01:22:56;;;;;;;7.10;6.40;;;15.90;99.90;;;;;;5077562;28;20245;-81
2023/09/22 01:25:23;;;;;;;7.13;6.43;;;15.90;99.90;;;;;;5079097;28;20797;-81
2023/09/22 01:27:50;;;;;;;7.00;6.40;;;15.90;99.90;;;;;;5081176;28;20286;-81
2023/09/22 01:30:17;;;;;;;8.17;6.70;;;15.90;99.90;;;;;;5064756;28;20314;-80
2023/09/22 01:32:43;;;;;;;7.97;5.93;;;15.90;99.90;;;;;;5063733;28;20222;-85
2023/09/22 01:35:10;;;;;;;6.53;5.93;;;15.80;99.90;;;;;;5058096;28;20222;-81
2023/09/22 01:37:40;;;;;;;6.53;5.93;;;15.90;99.90;;;;;;5078778;28;20261;-81
2023/09/22 01:40:10;;;;;;;6.90;6.30;;;15.90;99.90;;;;;;5080158;28;20226;-80
2023/09/22 01:42:36;;;;;;;11.17;6.80;;;15.90;99.90;;;;;;5055274;28;20639;-81
2023/09/22 01:45:05;;;;;;;7.80;7.10;;;15.90;99.90;;;;;;5087101;22;20231;-84
2023/09/22 01:47:32;;;;;;;7.23;6.47;;;15.90;99.90;;;;;;5080485;28;20317;-84
2023/09/22 01:49:59;;;;;;;6.87;6.27;;;15.80;99.90;;;;;;5064423;28;20777;-84
2023/09/22 01:52:26;;;;;;;7.90;6.63;;;15.80;99.90;;;;;;5063526;28;20223;-83
2023/09/22 01:54:53;;;;;;;6.40;5.80;;;15.90;99.90;;;;;;5074676;28;20238;-83
2023/09/22 01:57:21;;;;;;;6.10;5.60;;;15.90;99.90;;;;;;5078185;28;20247;-84
2023/09/22 01:59:48;;;;;;;6.83;6.17;;;15.80;99.90;;;;;;5065289;28;20247;-83
2023/09/22 02:02:15;;;;;;;6.13;5.53;;;15.80;99.90;;;;;;5061502;28;20222;-84
2023/09/22 02:04:43;;;;;;;5.57;5.07;;;15.80;99.90;;;;;;5081425;28;20221;-84
2023/09/22 02:07:10;;;;;;;5.50;5.00;;;15.80;99.90;;;;;;5078039;28;20217;-83
2023/09/22 02:09:37;;;;;;;5.90;5.30;;;15.80;99.90;;;;;;5078076;28;20237;-84
2023/09/22 02:12:04;;;;;;;6.03;5.20;;;15.80;99.90;;;;;;5065521;28;20230;-83
2023/09/22 02:14:33;;;;;;;9.13;5.10;;;15.70;99.90;;;;;;5076900;28;20639;-85
2023/09/22 02:17:00;;;;;;;4.53;3.97;;;15.70;99.90;;;;;;5065955;28;20916;-83
2023/09/22 02:19:27;;;;;;;4.63;3.30;;;15.70;99.90;;;;;;5081648;28;20322;-84
2023/09/22 02:21:54;;;;;;;3.03;2.83;;;15.70;99.90;;;;;;5082291;28;20431;-84
2023/09/22 02:24:21;;;;;;;3.60;2.60;;;15.70;99.90;;;;;;5065318;28;20229;-83
2023/09/22 02:26:50;;;;;;;3.47;3.00;;;15.70;99.90;;;;;;5083928;28;20230;-84
2023/09/22 02:29:17;;;;;;;2.63;2.43;;;15.70;99.90;;;;;;5064660;28;20242;-83
2023/09/22 02:31:45;;;;;;;2.50;2.30;;;15.70;99.90;;;;;;5069074;28;20219;-83
2023/09/22 02:34:11;;;;;;;2.17;1.80;;;15.70;99.90;;;;;;5066655;28;20234;-83
2023/09/22 02:36:38;;;;;;;2.13;1.93;;;15.70;99.90;;;;;;5080517;28;20295;-84
2023/09/22 02:39:06;;;;;;;1.70;1.60;;;15.70;99.90;;;;;;5080728;28;20222;-82
2023/09/22 02:41:33;;;;;;;1.73;1.63;;;15.60;99.90;;;;;;5063884;28;20405;-84
2023/09/22 02:44:00;;;;;;;2.43;1.90;;;15.60;99.90;;;;;;5078330;28;20226;-86
2023/09/22 02:46:27;;;;;;;2.17;1.97;;;15.60;99.90;;;;;;5062561;28;20276;-83
2023/09/22 02:48:55;;;;;;;1.60;1.50;;;15.60;99.90;;;;;;5084307;28;20250;-83
2023/09/22 02:51:22;;;;;;;1.87;1.50;;;15.60;99.90;;;;;;5061984;28;20786;-83
2023/09/22 02:53:50;;;;;;;1.70;1.60;;;15.60;99.90;;;;;;5066652;28;20220;-83
2023/09/22 02:56:17;;;;;;;1.63;1.50;;;15.50;99.90;;;;;;5083473;28;20245;-83
2023/09/22 02:58:45;;;;;;;1.67;1.50;;;15.50;99.90;;;;;;5065429;28;20215;-83
2023/09/22 03:01:14;;;;;;;1.73;1.53;;;15.50;99.90;;;;;;5084670;28;20225;-83
2023/09/22 03:03:42;;;;;;;2.07;1.70;;;15.40;99.90;;;;;;5081442;28;20211;-83
2023/09/22 03:06:12;;;;;;;2.03;1.80;;;15.40;99.90;;;;;;5064585;28;20233;-83
2023/09/22 03:08:40;;;;;;;1.80;1.70;;;15.30;99.90;;;;;;5066806;28;20249;-83
2023/09/22 03:11:07;;;;;;;4.23;1.77;;;15.30;99.90;;;;;;5084489;28;20219;-83
2023/09/22 03:13:34;;;;;;;1.63;1.53;;;15.20;99.90;;;;;;5072318;28;20243;-83
2023/09/22 03:16:01;;;;;;;1.90;1.70;;;15.20;99.90;;;;;;5085366;28;20324;-84
2023/09/22 03:18:28;;;;;;;1.70;1.60;;;15.20;99.90;;;;;;5072172;28;20252;-84
2023/09/22 03:20:55;;;;;;;1.47;1.37;;;15.10;99.90;;;;;;5070442;28;20214;-84
2023/09/22 03:23:23;;;;;;;2.10;1.40;;;15.10;99.90;;;;;;5090859;28;20218;-84
2023/09/22 03:25:51;;;;;;;2.13;1.60;;;15.00;99.90;;;;;;5092031;28;20226;-84
2023/09/22 03:28:19;;;;;;;1.77;1.50;;;15.00;99.90;;;;;;5085678;28;20267;-84
2023/09/22 03:30:46;;;;;;;1.67;1.40;;;14.90;99.90;;;;;;5085169;28;20221;-84
2023/09/22 03:33:12;;;;;;;1.53;1.43;;;14.90;99.90;;;;;;5070192;28;20210;-84
2023/09/22 03:35:40;;;;;;;1.60;1.50;;;14.80;99.90;;;;;;5085603;28;20226;-84
2023/09/22 03:38:09;;;;;;;1.60;1.50;;;14.80;99.90;;;;;;5071261;28;20229;-84
2023/09/22 03:40:41;;;;;;;3.43;1.80;;;14.70;99.90;;;;;;5067399;28;20230;-83
2023/09/22 03:43:08;;;;;;;2.17;1.60;;;14.70;99.90;;;;;;5069496;28;20211;-83
2023/09/22 03:45:35;;;;;;;1.50;1.40;;;14.60;99.90;;;;;;5071962;28;20223;-83
2023/09/22 03:48:03;;;;;;;2.27;1.87;;;14.60;99.90;;;;;;5079984;28;20229;-83
2023/09/22 03:50:30;;;;;;;2.00;1.60;;;14.60;99.90;;;;;;5080625;28;20227;-82
2023/09/22 03:52:57;;;;;;;2.13;1.80;;;14.50;99.90;;;;;;5087685;28;20643;-82
2023/09/22 03:55:23;;;;;;;1.87;1.67;;;14.50;99.90;;;;;;5068028;28;20303;-84
2023/09/22 03:57:52;;;;;;;3.53;1.90;;;14.40;99.90;;;;;;5088907;28;20280;-84
2023/09/22 04:00:24;;;;;;;1.63;1.53;;;14.40;99.90;;;;;;5083857;28;20229;-83
2023/09/22 04:02:52;;;;;;;1.70;1.60;;;14.40;99.90;;;;;;5065536;28;20876;-83
2023/09/22 04:05:19;;;;;;;2.30;2.10;;;14.30;99.90;;;;;;5080560;28;20245;-84
2023/09/22 04:07:46;;;;;;;2.77;2.30;;;14.30;99.90;;;;;;5086580;28;20248;-83
2023/09/22 04:10:15;;;;;;;3.03;2.20;;;14.30;99.90;;;;;;5064730;28;20218;-84
2023/09/22 04:12:42;;;;;;;2.57;2.37;;;14.30;99.90;;;;;;5068267;28;20226;-84
2023/09/22 04:15:10;;;;;;;2.30;2.10;;;14.30;99.90;;;;;;5089333;28;20286;-84
2023/09/22 04:17:38;;;;;;;2.47;1.90;;;14.20;99.90;;;;;;5087439;28;20417;-85
2023/09/22 04:20:07;;;;;;;2.40;2.13;;;14.30;99.90;;;;;;5087424;28;20223;-84
2023/09/22 04:22:34;;;;;;;2.73;2.50;;;14.20;99.90;;;;;;5085895;28;20242;-80
2023/09/22 04:25:07;;;;;;;2.77;2.57;;;14.30;99.90;;;;;;5088406;28;20260;-84
2023/09/22 04:27:35;;;;;;;4.83;4.00;;;14.20;99.90;;;;;;5086776;28;20220;-82
2023/09/22 04:30:03;;;;;;;4.17;3.77;;;14.20;99.90;;;;;;5084547;28;20289;-80
2023/09/22 04:32:33;;;;;;;14.17;5.57;;;14.20;99.90;;;;;;5066560;28;20252;-82
2023/09/22 04:35:00;;;;;;;7.57;5.13;;;14.20;99.90;;;;;;5067073;28;20271;-84
2023/09/22 04:37:27;;;;;;;6.10;5.20;;;14.20;99.90;;;;;;5088729;28;20224;-85
2023/09/22 04:39:55;;;;;;;4.93;4.43;;;14.20;99.90;;;;;;5082514;28;20237;-83
2023/09/22 04:42:22;;;;;;;5.37;4.87;;;14.20;99.90;;;;;;5088183;28;20217;-83
2023/09/22 04:44:51;;;;;;;5.60;5.10;;;14.20;99.90;;;;;;5082519;28;20229;-83
2023/09/22 04:47:19;;;;;;;5.80;5.20;;;14.20;99.90;;;;;;5089405;28;20221;-83
2023/09/22 04:49:47;;;;;;;6.43;5.57;;;14.20;99.90;;;;;;5070717;28;20242;-84
2023/09/22 04:52:14;;;;;;;6.63;5.93;;;14.30;99.90;;;;;;5070755;28;20221;-83
2023/09/22 04:54:40;;;;;;;6.90;6.30;;;14.30;99.90;;;;;;5086995;28;20225;-82
2023/09/22 04:57:07;;;;;;;7.13;6.43;;;14.30;99.90;;;;;;5065964;28;20689;-83
2023/09/22 04:59:34;;;;;;;6.93;6.30;;;14.30;99.90;;;;;;5068967;28;20272;-83
2023/09/22 05:02:01;;;;;;;7.10;6.40;;;14.40;99.90;;;;;;5082095;28;20253;-83
2023/09/22 05:04:28;;;;;;;8.90;6.40;;;14.40;99.90;;;;;;5083023;28;20232;-83
2023/09/22 05:06:57;;;;;;;9.73;7.40;;;14.40;99.90;;;;;;5067632;28;20224;-83
2023/09/22 05:09:24;;;;;;;8.20;7.40;;;14.40;99.90;;;;;;5082607;28;20273;-83
2023/09/22 05:11:51;;;;;;;8.17;7.37;;;14.40;99.90;;;;;;5088981;28;20248;-83
2023/09/22 05:14:18;;;;;;;7.97;7.17;;;14.40;99.90;;;;;;5086597;28;20216;-82
2023/09/22 05:16:45;;;;;;;9.00;8.07;;;14.40;99.90;;;;;;5086609;28;20315;-83
2023/09/22 05:19:11;;;;;;;8.63;7.80;;;14.40;99.90;;;;;;5065450;28;20226;-82
2023/09/22 05:21:38;;;;;;;8.80;7.90;;;14.50;99.90;;;;;;5070547;28;20245;-83
2023/09/22 05:24:07;;;;;;;10.17;8.43;;;14.50;99.90;;;;;;5083192;28;20283;-82
2023/09/22 05:26:35;;;;;;;10.13;8.20;;;14.50;99.90;;;;;;5069272;28;20288;-82
2023/09/22 05:29:02;;;;;;;9.10;8.10;;;14.50;99.90;;;;;;5065327;28;20232;-82
2023/09/22 05:31:29;;;;;;;9.83;8.83;;;14.50;99.90;;;;;;5081750;28;20243;-84
2023/09/22 05:33:55;;;;;;;9.50;8.37;;;14.50;99.90;;;;;;5079183;28;20304;-83
2023/09/22 05:36:22;;;;;;;9.43;8.43;;;14.50;99.90;;;;;;5082354;28;20222;-82
2023/09/22 05:38:49;;;;;;;10.77;8.37;;;14.50;99.90;;;;;;5081844;28;20294;-83
2023/09/22 05:41:17;;;;;;;11.00;8.63;;;14.50;99.90;;;;;;5085015;28;20329;-83
2023/09/22 05:43:44;;;;;;;9.40;8.50;;;14.60;99.90;;;;;;5069608;28;20222;-85
2023/09/22 05:46:11;;;;;;;10.90;8.73;;;14.60;99.90;;;;;;5079835;28;20218;-83
2023/09/22 05:48:38;;;;;;;9.80;8.80;;;14.50;99.90;;;;;;5066302;28;20294;-83
2023/09/22 05:51:05;;;;;;;9.87;8.87;;;14.60;99.90;;;;;;5057131;28;20221;-84
2023/09/22 05:53:32;;;;;;;9.93;8.93;;;14.60;99.90;;;;;;5064903;28;20332;-83
2023/09/22 05:56:09;;;;;;;9.93;8.53;;;14.60;99.90;;;;;;5082661;28;20226;-84
2023/09/22 05:58:38;;;;;;;9.67;8.67;;;14.60;99.90;;;;;;5080814;28;20228;-83
2023/09/22 06:01:07;;;;;;;11.40;9.57;;;14.70;99.90;;;;;;5073485;28;20226;-82
2023/09/22 06:03:36;;;;;;;9.93;8.80;;;14.70;99.90;;;;;;5073966;28;20222;-83
2023/09/22 06:06:08;;;;;;;10.60;9.27;;;14.70;99.90;;;;;;5068913;28;20219;-85
2023/09/22 06:08:34;;;;;;;12.73;9.73;;;14.70;99.90;;;;;;5065124;28;20232;-82
2023/09/22 06:11:01;;;;;;;12.97;9.90;;;14.80;99.90;;;;;;5085922;28;20221;-83
2023/09/22 06:13:28;;;;;;;11.00;9.60;;;14.80;99.90;;;;;;5087524;28;20893;-82
2023/09/22 06:15:56;;;;;;;10.63;9.53;;;14.80;99.90;;;;;;5067463;28;20229;-82
2023/09/22 06:18:24;;;;;;;10.33;9.17;;;14.80;99.90;;;;;;5069723;28;20313;-82
2023/09/22 06:20:54;;;;;;;10.57;9.03;;;14.90;99.90;;;;;;5065159;28;20227;-83
2023/09/22 06:23:20;;;;;;;9.87;8.87;;;14.90;99.90;;;;;;5086777;28;20314;-82
2023/09/22 06:25:47;;;;;;;12.27;9.60;;;14.90;99.90;;;;;;5084232;28;20859;-82
2023/09/22 06:28:15;;;;;;;12.23;9.30;;;15.00;99.90;;;;;;5083388;28;20281;-82
2023/09/22 06:30:45;;;;;;;12.33;9.80;;;15.00;99.90;;;;;;5086451;28;20222;-83
2023/09/22 06:33:13;;;;;;;11.50;9.37;;;15.10;99.90;;;;;;5082342;28;20405;-83
2023/09/22 06:35:39;;;;;;;10.10;8.97;;;15.10;99.90;;;;;;5083183;28;20313;-83
2023/09/22 06:38:10;;;;;;;12.50;9.37;;;15.20;99.90;;;;;;5063118;28;20316;-83
2023/09/22 06:40:37;;;;;;;10.07;8.47;;;15.20;99.90;;;;;;5066425;28;20232;-82
2023/09/22 06:43:05;;;;;;;10.53;9.20;;;15.20;99.90;;;;;;5083380;28;20685;-82
2023/09/22 06:45:33;;;;;;;9.97;8.70;;;15.20;99.90;;;;;;5085281;28;20275;-83
2023/09/22 06:48:00;;;;;;;10.00;8.57;;;15.20;99.90;;;;;;5082876;28;20222;-84
2023/09/22 06:50:30;;;;;;;11.40;8.70;;;15.20;99.90;;;;;;5065626;28;20306;-83
2023/09/22 06:52:58;;;;;;;9.90;8.90;;;15.20;99.90;;;;;;5065249;28;21777;-84
2023/09/22 06:55:25;;;;;;;9.93;8.83;;;15.20;99.90;;;;;;5082391;28;20234;-83
2023/09/22 06:57:52;;;;;;;10.40;8.63;;;15.10;99.90;;;;;;5064739;28;20363;-84
2023/09/22 07:00:22;;;;;;;9.27;8.27;;;15.10;99.90;;;;;;5085936;28;20348;-84
2023/09/22 07:02:49;;;;;;;9.03;8.10;;;15.10;99.90;;;;;;5081451;28;20240;-84
2023/09/22 07:05:16;;;;;;;9.60;8.60;;;15.10;99.90;;;;;;5084232;28;20280;-84
2023/09/22 07:07:44;;;;;;;9.60;8.47;;;15.20;99.90;;;;;;5087193;28;20324;-83
2023/09/22 07:10:11;;;;;;;9.60;7.33;;;15.20;99.90;;;;;;5067205;28;20237;-83
2023/09/22 07:12:38;;;;;;;9.57;7.87;;;15.30;99.90;;;;;;5082067;28;20309;-82
2023/09/22 07:15:06;;;;;;;9.00;7.70;;;15.30;99.90;;;;;;5079395;28;20236;-83
2023/09/22 07:17:33;;;;;;;7.77;6.97;;;15.30;99.90;;;;;;5081710;28;20237;-82
2023/09/22 07:20:00;;;;;;;9.30;7.37;;;15.30;99.90;;;;;;5080533;28;20245;-82
2023/09/22 07:22:27;;;;;;;7.33;6.57;;;15.40;99.90;;;;;;5081761;28;20218;-82
2023/09/22 07:24:55;;;;;;;7.63;6.80;;;15.40;99.90;;;;;;5082539;28;20231;-81
2023/09/22 07:27:23;;;;;;;8.33;6.93;;;15.50;99.90;;;;;;5082138;28;20227;-83
2023/09/22 07:29:50;;;;;;;9.60;7.37;;;15.50;99.90;;;;;;5083697;28;20272;-83
2023/09/22 07:32:17;;;;;;;7.17;6.47;;;15.60;99.90;;;;;;5081668;28;20891;-84
2023/09/22 07:34:44;;;;;;;7.40;6.20;;;15.60;99.90;;;;;;5066110;28;20229;-84
2023/09/22 07:37:12;;;;;;;6.03;5.43;;;15.60;99.90;;;;;;5059996;28;20234;-82
2023/09/22 07:39:39;;;;;;;7.13;5.93;;;15.70;99.90;;;;;;5086876;28;20642;-80
2023/09/22 07:42:09;;;;;;;7.03;5.40;;;15.70;99.90;;;;;;5082620;28;20721;-81
2023/09/22 07:44:35;;;;;;;8.03;6.00;;;15.70;99.90;;;;;;5065910;28;20281;-83
2023/09/22 07:47:09;;;;;;;7.77;5.60;;;15.70;99.90;;;;;;5081870;28;20225;-83
2023/09/22 07:49:36;;;;;;;11.53;5.53;;;15.70;99.90;;;;;;5081183;28;20223;-82
2023/09/22 07:52:04;;;;;;;6.13;5.07;;;15.70;99.90;;;;;;5083992;28;20226;-83
2023/09/22 07:54:31;;;;;;;6.17;5.00;;;15.80;99.90;;;;;;5082627;28;20227;-81
2023/09/22 07:56:58;;;;;;;6.57;4.80;;;15.80;99.90;;;;;;5084947;28;20278;-81
2023/09/22 07:59:25;;;;;;;5.60;4.60;;;15.90;99.90;;;;;;5084820;28;20731;-81
2023/09/22 08:01:52;;;;;;;6.23;4.80;;;16.00;99.90;;;;;;5085804;28;20215;-82
2023/09/22 08:04:19;;;;;;;5.73;4.53;;;16.10;99.90;;;;;;5064364;28;20238;-81
2023/09/22 08:06:46;;;;;;;5.10;4.60;;;16.30;99.90;;;;;;5083660;28;20227;-82
2023/09/22 08:09:13;;;;;;;5.20;4.70;;;16.30;99.90;;;;;;5063602;28;20270;-81
2023/09/22 08:11:40;;;;;;;7.70;5.37;;;16.40;99.90;;;;;;5068429;28;20214;-82
2023/09/22 08:14:07;;;;;;;5.23;4.73;;;16.40;99.90;;;;;;5084514;28;20299;-82
2023/09/22 08:16:35;;;;;;;6.90;4.90;;;16.50;99.90;;;;;;5087786;28;20230;-81
2023/09/22 08:19:02;;;;;;;8.50;5.07;;;16.50;99.90;;;;;;5089783;28;20223;-81
2023/09/22 08:21:28;;;;;;;7.13;5.07;;;16.50;99.90;;;;;;5083207;28;20305;-82
2023/09/22 08:23:55;;;;;;;4.70;4.30;;;16.60;99.90;;;;;;5087997;28;20215;-82
2023/09/22 08:26:23;;;;;;;10.87;5.20;;;16.70;99.90;;;;;;5080203;28;20232;-83
2023/09/22 08:28:50;;;;;;;6.80;4.43;;;16.60;99.90;;;;;;5085775;28;20655;-82
2023/09/22 08:31:17;;;;;;;4.97;4.47;;;16.60;99.90;;;;;;5083781;28;20226;-81
2023/09/22 08:33:45;;;;;;;5.27;4.53;;;16.60;99.90;;;;;;5086026;28;20300;-81
2023/09/22 08:36:12;;;;;;;11.40;5.03;;;16.60;99.90;;;;;;5071928;28;20238;-82
2023/09/22 08:38:39;;;;;;;9.43;3.93;;;16.70;99.90;;;;;;5086534;28;20773;-83
2023/09/22 08:41:06;;;;;;;3.77;3.20;;;16.80;99.90;;;;;;5088044;28;20222;-81
2023/09/22 08:43:35;;;;;;;5.23;3.77;;;16.90;99.90;;;;;;5086246;28;20222;-81
2023/09/22 08:46:02;;;;;;;4.73;3.97;;;17.00;99.90;;;;;;5062024;28;20231;-81
2023/09/22 08:48:29;;;;;;;4.80;4.00;;;17.20;99.90;;;;;;5066062;28;21097;-81
2023/09/22 08:50:57;;;;;;;3.40;3.10;;;17.20;99.90;;;;;;5080741;28;20726;-81
2023/09/22 08:53:24;;;;;;;4.03;3.23;;;17.30;99.90;;;;;;5070255;28;20502;-81
2023/09/22 08:55:51;;;;;;;3.60;2.87;;;17.30;99.90;;;;;;5088577;28;20252;-82
2023/09/22 08:58:18;;;;;;;3.50;3.00;;;17.40;99.90;;;;;;5079047;28;20222;-81
2023/09/22 09:00:47;;;;;;;5.07;3.07;;;17.40;99.90;;;;;;5088668;28;20276;-82
2023/09/22 09:03:16;;;;;;;4.70;3.37;;;17.30;99.90;;;;;;5084285;28;20250;-81
2023/09/22 09:05:44;;;;;;;3.60;3.30;;;17.30;99.90;;;;;;5090631;28;20282;-83
2023/09/22 09:08:13;;;;;;;4.10;3.17;;;17.20;99.90;;;;;;5085003;28;20250;-82
2023/09/22 09:10:41;;;;;;;5.97;3.07;;;17.10;99.90;;;;;;5087520;28;20249;-82
2023/09/22 09:13:12;;;;;;;6.40;2.70;;;17.00;99.90;;;;;;5066928;28;20819;-81
2023/09/22 09:15:45;;;;;;;10.63;3.53;;;17.00;99.90;;;;;;5084884;28;20235;-83
2023/09/22 09:18:13;;;;;;;5.27;3.10;;;16.90;99.90;;;;;;5082799;28;20229;-82
2023/09/22 09:20:41;;;;;;;3.43;2.90;;;16.90;99.90;;;;;;5086624;28;20249;-81
2023/09/22 09:23:14;;;;;;;4.17;2.67;;;16.90;99.90;;;;;;5076280;28;20230;-83
2023/09/22 09:25:45;;;;;;;4.68;2.88;;;16.90;99.90;;;;;;5084886;28;20234;-84
2023/09/22 09:28:12;;;;;;;3.70;2.53;;;16.90;99.90;;;;;;5082830;28;20335;-81
2023/09/22 09:30:39;;;;;;;2.87;2.40;;;17.00;99.90;;;;;;5083094;28;20700;-81
2023/09/22 09:33:10;;;;;;;2.87;2.33;;;17.00;99.90;;;;;;5066741;28;20219;-81
2023/09/22 09:35:38;;;;;;;4.27;2.70;;;17.10;99.90;;;;;;5081040;28;20231;-81
2023/09/22 09:38:06;;;;;;;4.93;2.50;;;17.20;99.90;;;;;;5080842;28;20214;-83
2023/09/22 09:40:37;;;;;;;3.50;2.40;;;17.30;99.90;;;;;;5081713;28;20808;-82
2023/09/22 09:43:10;;;;;;;3.85;2.28;;;17.40;99.90;;;;;;5063745;28;20230;-82
2023/09/22 09:45:41;;;;;;;3.50;2.47;;;17.50;99.90;;;;;;5081584;28;20587;-81
2023/09/22 09:48:11;;;;;;;4.77;2.60;;;17.60;99.90;;;;;;5078748;28;20234;-83
2023/09/22 09:50:40;;;;;;;10.90;3.58;;;17.70;99.90;;;;;;5081618;28;21171;-81
2023/09/22 09:53:26;;;;;;;7.00;2.70;;;17.80;99.90;;;;;;5058076;28;20538;-82
2023/09/22 09:55:58;;;;;;;10.90;2.37;;;17.90;99.90;;;;;;5082073;28;20218;-81
2023/09/22 09:58:28;;;;;;;16.80;2.55;;;18.00;99.90;;;;;;5084014;28;20219;-82
2023/09/22 10:00:56;;;;;;;7.00;2.33;;;18.10;99.90;;;;;;5065130;28;20908;-82
2023/09/22 10:03:24;;;;;;;3.58;1.80;;;18.20;99.90;;;;;;5084692;28;20746;-83
2023/09/22 10:05:51;;;;;;;2.78;1.98;;;18.30;99.90;;;;;;5084372;28;20218;-83
2023/09/22 10:08:20;;;;;;;6.70;1.65;;;18.60;99.90;;;;;;5081035;28;20231;-81
2023/09/22 10:10:49;;;;;;;2.65;1.48;;;18.90;99.90;;;;;;5064971;28;20435;-83
2023/09/22 10:13:17;;;;;;;4.45;1.48;;;19.20;99.90;;;;;;5079369;28;20230;-83
2023/09/22 10:15:55;;;;;;;5.43;1.90;;;19.50;99.90;;;;;;5078274;28;20242;-84
2023/09/22 10:18:24;;;;;;;2.38;1.65;;;19.70;99.90;;;;;;5083325;28;20258;-81
2023/09/22 10:20:51;;;;;;;4.85;1.90;;;19.70;99.90;;;;;;5081558;28;20697;-82
2023/09/22 10:23:22;;;;;;;6.07;1.75;;;19.80;99.90;;;;;;5080164;28;20912;-82
2023/09/22 10:26:22;;;;;;;3.65;1.60;;;19.80;99.90;;;;;;5077098;28;20224;-82
2023/09/22 10:28:50;;;;;;;5.05;1.55;;;19.80;99.90;;;;;;5000834;28;20360;-81
2023/09/22 10:31:17;;;;;;;15.23;2.97;;;19.60;99.90;;;;;;4997687;28;20226;-82
2023/09/22 10:33:46;;;;;;;9.23;1.98;;;19.50;99.90;;;;;;5035766;28;20689;-82
2023/09/22 10:36:46;;;;;;;24.13;4.00;;;19.40;99.90;;;;;;5079741;28;20231;-83
2023/09/22 10:39:12;;;;;;;2.50;1.30;;;19.20;99.90;;;;;;5061327;28;20274;-82
2023/09/22 10:42:00;;;;;;;2.60;1.15;;;19.10;99.90;;;;;;5079903;28;20211;-82
2023/09/22 10:44:28;;;;;;;4.85;1.33;;;19.10;99.90;;;;;;5087422;28;20234;-81
2023/09/22 10:46:57;;;;;;;3.60;1.25;;;19.10;99.90;;;;;;5087428;28;20218;-81
2023/09/22 10:49:28;;;;;;;3.35;1.30;;;19.20;99.90;;;;;;5087549;28;20630;-82
2023/09/22 10:51:57;;;;;;;2.30;1.33;;;19.30;99.90;;;;;;5082273;28;20210;-81
2023/09/22 10:54:23;;;;;;;3.70;1.65;;;19.50;99.90;;;;;;5082715;28;20222;-82
2023/09/22 10:56:50;;;;;;;2.10;1.08;;;19.50;99.90;;;;;;5081974;28;20241;-81
2023/09/22 10:59:17;;;;;;;4.22;1.38;;;19.60;99.90;;;;;;5083770;28;20257;-82
2023/09/22 11:01:46;;;;;;;3.22;1.35;;;19.70;99.90;;;;;;5076363;28;20219;-82
2023/09/22 11:04:13;;;;;;;2.25;1.30;;;19.80;99.90;;;;;;5079511;28;20223;-82
2023/09/22 11:06:44;;;;;;;4.68;1.30;;;20.00;99.90;;;;;;5083028;28;20975;-82
2023/09/22 11:09:11;;;;;;;3.10;1.30;;;20.10;99.90;;;;;;5083023;28;20229;-81
2023/09/22 11:11:38;;;;;;;6.50;1.50;;;20.10;99.90;;;;;;5086183;28;20735;-83
2023/09/22 11:14:05;;;;;;;3.65;1.27;;;20.20;99.90;;;;;;5082259;28;20329;-81
2023/09/22 11:16:31;;;;;;;2.20;1.00;;;20.20;99.90;;;;;;5080398;28;20232;-83
2023/09/22 11:19:06;;;;;;;1.65;1.20;;;20.10;99.90;;;;;;5081018;28;20250;-81
2023/09/22 11:21:38;;;;;;;3.22;1.10;;;20.10;99.90;;;;;;5083361;28;20689;-82
2023/09/22 11:24:06;;;;;;;4.25;1.63;;;20.10;99.90;;;;;;5080771;28;20226;-82
2023/09/22 11:26:40;;;;;;;2.33;1.40;;;20.10;99.90;;;;;;5078634;28;20230;-81
2023/09/22 11:29:07;;;;;;;2.80;1.45;;;20.00;99.90;;;;;;5075391;28;20657;-82
2023/09/22 11:31:34;;;;;;;2.15;1.20;;;20.00;99.90;;;;;;5074329;28;21048;-82
2023/09/22 11:34:03;;;;;;;2.30;1.25;;;20.00;99.90;;;;;;5081427;28;20232;-82
2023/09/22 11:39:27;;;;;;;3.17;1.73;;;20.10;99.90;;;;;;5095469;27;21258;-81
2023/09/22 11:41:54;;;;;;;2.75;1.30;;;20.30;99.90;;;;;;5111917;28;20218;-81
2023/09/22 11:44:21;;;;;;;2.42;1.27;;;20.40;99.90;;;;;;5115884;27;20932;-81
2023/09/22 11:46:48;;;;;;;3.72;1.50;;;20.40;99.90;;;;;;5112551;27;20309;-81
2023/09/22 11:49:15;;;;;;;3.47;1.70;;;20.50;99.90;;;;;;5112894;27;20225;-81
2023/09/22 11:51:48;;;;;;;2.75;1.63;;;20.60;99.90;;;;;;5110836;27;20692;-82
2023/09/22 11:54:16;;;;;;;3.50;1.60;;;20.80;99.70;;;;;;5112756;27;20221;-81
2023/09/22 11:56:44;;;;;;;2.20;1.77;;;20.90;99.50;;;;;;5113278;27;20253;-81
2023/09/22 11:59:12;;;;;;;3.80;2.08;;;21.10;98.90;;;;;;5113551;27;22044;-81
2023/09/22 12:01:40;;;;;;;4.97;2.20;;;21.20;97.90;;;;;;5110302;27;21007;-81
2023/09/22 12:04:09;;;;;;;3.45;1.67;;;21.30;97.20;;;;;;5112658;27;20215;-80
2023/09/22 12:06:36;;;;;;;4.28;1.83;;;21.40;97.70;;;;;;5112938;27;20229;-81
2023/09/22 12:09:04;;;;;;;2.33;1.65;;;21.50;96.70;;;;;;5112451;27;20312;-81
2023/09/22 12:11:31;;;;;;;3.47;1.67;;;21.50;97.00;;;;;;5111389;27;20334;-81
2023/09/22 12:14:00;;;;;;;2.20;1.30;;;21.40;97.30;;;;;;5116325;27;20257;-81
2023/09/22 12:16:27;;;;;;;5.57;1.77;;;21.40;96.80;;;;;;5113341;27;20221;-81
2023/09/22 12:18:54;;;;;;;4.93;2.13;;;21.30;97.20;;;;;;5117920;27;20384;-81
2023/09/22 12:21:21;;;;;;;3.53;1.80;;;21.20;97.30;;;;;;5113758;27;20233;-81
2023/09/22 12:23:48;;;;;;;2.58;1.48;;;21.00;96.90;;;;;;5114362;27;20213;-82
2023/09/22 12:26:14;;;;;;;2.80;1.70;;;21.00;97.20;;;;;;5114350;27;20264;-80
2023/09/22 12:28:41;;;;;;;1.98;1.30;;;21.00;97.40;;;;;;5117962;27;20222;-81
2023/09/22 12:31:10;;;;;;;1.85;1.40;;;20.90;97.10;;;;;;5117605;27;20217;-81
2023/09/22 12:33:38;;;;;;;3.25;1.73;;;20.80;97.00;;;;;;5115663;27;20225;-81
2023/09/22 12:36:07;;;;;;;3.92;1.42;;;20.70;97.30;;;;;;5116398;27;20313;-81
2023/09/22 12:38:35;;;;;;;3.25;1.65;;;20.70;97.30;;;;;;5116132;27;21102;-81
2023/09/22 12:41:04;;;;;;;2.33;1.50;;;20.60;98.10;;;;;;5116345;27;20217;-81
2023/09/22 12:43:30;;;;;;;2.50;1.55;;;20.50;97.40;;;;;;5113329;27;20226;-81
2023/09/22 12:45:57;;;;;;;3.88;1.63;;;20.50;97.50;;;;;;5117128;28;20278;-81
2023/09/22 12:48:25;;;;;;;1.98;1.38;;;20.50;97.80;;;;;;5115473;27;20228;-80
2023/09/22 12:50:56;;;;;;;3.10;1.65;;;20.50;97.80;;;;;;5101187;28;20214;-80
2023/09/22 12:53:25;;;;;;;4.00;1.75;;;20.60;97.20;;;;;;5103224;27;20251;-81